sensor_id;sensor_type;location;lat;lon;timestamp;P1;durP1;ratioP1;P2;durP2;ratioP2
11807;SDS011;5961;42.640;23.380;2022-11-24T00:02:24;10.73;;;4.47;;
11807;SDS011;5961;42.640;23.380;2022-11-24T00:04:51;8.17;;;4.80;;
11807;SDS011;5961;42.640;23.380;2022-11-24T00:07:18;6.70;;;4.33;;
11807;SDS011;5961;42.640;23.380;2022-11-24T00:09:44;6.00;;;3.93;;
11807;SDS011;5961;42.640;23.380;2022-11-24T00:12:11;7.77;;;4.10;;
11807;SDS011;5961;42.640;23.380;2022-11-24T00:14:39;5.37;;;3.90;;
11807;SDS011;5961;42.640;23.380;2022-11-24T00:17:06;8.40;;;4.20;;
11807;SDS011;5961;42.640;23.380;2022-11-24T00:19:32;6.20;;;3.83;;
11807;SDS011;5961;42.640;23.380;2022-11-24T00:21:59;4.47;;;3.80;;
11807;SDS011;5961;42.640;23.380;2022-11-24T00:24:26;5.43;;;3.83;;
11807;SDS011;5961;42.640;23.380;2022-11-24T00:26:52;5.33;;;3.33;;
11807;SDS011;5961;42.640;23.380;2022-11-24T00:29:19;4.83;;;3.10;;
11807;SDS011;5961;42.640;23.380;2022-11-24T00:31:47;6.73;;;3.37;;
11807;SDS011;5961;42.640;23.380;2022-11-24T00:34:14;6.80;;;3.70;;
11807;SDS011;5961;42.640;23.380;2022-11-24T00:36:40;4.87;;;3.80;;
11807;SDS011;5961;42.640;23.380;2022-11-24T00:39:10;6.73;;;3.50;;
11807;SDS011;5961;42.640;23.380;2022-11-24T00:41:37;5.63;;;3.70;;
11807;SDS011;5961;42.640;23.380;2022-11-24T00:44:04;6.90;;;3.90;;
11807;SDS011;5961;42.640;23.380;2022-11-24T00:46:32;8.97;;;4.40;;
11807;SDS011;5961;42.640;23.380;2022-11-24T00:49:00;6.10;;;3.97;;
11807;SDS011;5961;42.640;23.380;2022-11-24T00:51:27;5.93;;;3.93;;
11807;SDS011;5961;42.640;23.380;2022-11-24T00:53:54;5.67;;;3.67;;
11807;SDS011;5961;42.640;23.380;2022-11-24T00:56:21;4.70;;;3.37;;
11807;SDS011;5961;42.640;23.380;2022-11-24T00:58:49;6.90;;;4.13;;
11807;SDS011;5961;42.640;23.380;2022-11-24T01:01:16;5.77;;;3.50;;
11807;SDS011;5961;42.640;23.380;2022-11-24T01:03:44;5.57;;;3.50;;
11807;SDS011;5961;42.640;23.380;2022-11-24T01:06:14;6.20;;;3.80;;
11807;SDS011;5961;42.640;23.380;2022-11-24T01:08:42;7.93;;;3.93;;
11807;SDS011;5961;42.640;23.380;2022-11-24T01:11:10;6.17;;;3.77;;
11807;SDS011;5961;42.640;23.380;2022-11-24T01:13:39;7.50;;;3.77;;
11807;SDS011;5961;42.640;23.380;2022-11-24T01:16:12;4.83;;;3.73;;
11807;SDS011;5961;42.640;23.380;2022-11-24T01:18:40;7.13;;;3.50;;
11807;SDS011;5961;42.640;23.380;2022-11-24T01:21:07;6.57;;;3.90;;
11807;SDS011;5961;42.640;23.380;2022-11-24T01:23:35;6.70;;;3.50;;
11807;SDS011;5961;42.640;23.380;2022-11-24T01:26:02;6.30;;;3.43;;
11807;SDS011;5961;42.640;23.380;2022-11-24T01:28:30;5.73;;;3.70;;
11807;SDS011;5961;42.640;23.380;2022-11-24T01:30:57;7.57;;;3.70;;
11807;SDS011;5961;42.640;23.380;2022-11-24T01:33:24;4.63;;;3.50;;
11807;SDS011;5961;42.640;23.380;2022-11-24T01:35:50;5.20;;;3.30;;
11807;SDS011;5961;42.640;23.380;2022-11-24T01:38:17;5.90;;;3.27;;
11807;SDS011;5961;42.640;23.380;2022-11-24T01:40:45;4.87;;;3.33;;
11807;SDS011;5961;42.640;23.380;2022-11-24T01:43:14;4.83;;;3.40;;
11807;SDS011;5961;42.640;23.380;2022-11-24T01:45:42;8.47;;;3.97;;
11807;SDS011;5961;42.640;23.380;2022-11-24T01:48:12;7.93;;;3.90;;
11807;SDS011;5961;42.640;23.380;2022-11-24T01:50:44;5.33;;;3.27;;
11807;SDS011;5961;42.640;23.380;2022-11-24T01:53:13;4.40;;;3.00;;
11807;SDS011;5961;42.640;23.380;2022-11-24T01:55:40;5.87;;;3.07;;
11807;SDS011;5961;42.640;23.380;2022-11-24T01:58:08;8.37;;;2.97;;
11807;SDS011;5961;42.640;23.380;2022-11-24T02:00:40;6.40;;;3.50;;
11807;SDS011;5961;42.640;23.380;2022-11-24T02:03:09;5.40;;;3.30;;
11807;SDS011;5961;42.640;23.380;2022-11-24T02:05:40;4.97;;;3.10;;
11807;SDS011;5961;42.640;23.380;2022-11-24T02:08:12;4.47;;;2.97;;
11807;SDS011;5961;42.640;23.380;2022-11-24T02:10:46;4.50;;;3.20;;
11807;SDS011;5961;42.640;23.380;2022-11-24T02:13:15;5.20;;;3.00;;
11807;SDS011;5961;42.640;23.380;2022-11-24T02:15:42;5.13;;;2.83;;
11807;SDS011;5961;42.640;23.380;2022-11-24T02:18:09;5.17;;;2.70;;
11807;SDS011;5961;42.640;23.380;2022-11-24T02:20:35;3.93;;;2.90;;
11807;SDS011;5961;42.640;23.380;2022-11-24T02:23:04;3.87;;;2.80;;
11807;SDS011;5961;42.640;23.380;2022-11-24T02:25:41;3.67;;;2.90;;
11807;SDS011;5961;42.640;23.380;2022-11-24T02:28:14;6.27;;;2.77;;
11807;SDS011;5961;42.640;23.380;2022-11-24T02:30:43;5.70;;;2.93;;
11807;SDS011;5961;42.640;23.380;2022-11-24T02:33:10;3.93;;;2.83;;
11807;SDS011;5961;42.640;23.380;2022-11-24T02:35:38;5.73;;;2.90;;
11807;SDS011;5961;42.640;23.380;2022-11-24T02:38:05;3.93;;;2.90;;
11807;SDS011;5961;42.640;23.380;2022-11-24T02:40:32;3.30;;;2.70;;
11807;SDS011;5961;42.640;23.380;2022-11-24T02:42:59;4.10;;;2.80;;
11807;SDS011;5961;42.640;23.380;2022-11-24T02:45:32;5.17;;;3.37;;
11807;SDS011;5961;42.640;23.380;2022-11-24T02:47:58;4.10;;;2.73;;
11807;SDS011;5961;42.640;23.380;2022-11-24T02:50:25;3.93;;;3.10;;
11807;SDS011;5961;42.640;23.380;2022-11-24T02:52:52;5.90;;;3.30;;
11807;SDS011;5961;42.640;23.380;2022-11-24T02:55:18;3.93;;;2.87;;
11807;SDS011;5961;42.640;23.380;2022-11-24T02:57:45;4.30;;;3.00;;
11807;SDS011;5961;42.640;23.380;2022-11-24T03:00:13;3.97;;;3.10;;
11807;SDS011;5961;42.640;23.380;2022-11-24T03:02:41;5.87;;;3.03;;
11807;SDS011;5961;42.640;23.380;2022-11-24T03:05:08;4.27;;;2.80;;
11807;SDS011;5961;42.640;23.380;2022-11-24T03:07:37;4.17;;;3.00;;
11807;SDS011;5961;42.640;23.380;2022-11-24T03:10:04;5.50;;;2.77;;
11807;SDS011;5961;42.640;23.380;2022-11-24T03:12:31;6.23;;;3.10;;
11807;SDS011;5961;42.640;23.380;2022-11-24T03:14:58;3.83;;;2.73;;
11807;SDS011;5961;42.640;23.380;2022-11-24T03:17:24;4.63;;;2.97;;
11807;SDS011;5961;42.640;23.380;2022-11-24T03:19:53;4.33;;;2.70;;
11807;SDS011;5961;42.640;23.380;2022-11-24T03:22:19;4.23;;;3.00;;
11807;SDS011;5961;42.640;23.380;2022-11-24T03:24:46;4.37;;;2.90;;
11807;SDS011;5961;42.640;23.380;2022-11-24T03:27:13;5.43;;;3.17;;
11807;SDS011;5961;42.640;23.380;2022-11-24T03:29:39;3.20;;;2.90;;
11807;SDS011;5961;42.640;23.380;2022-11-24T03:32:06;5.77;;;3.20;;
11807;SDS011;5961;42.640;23.380;2022-11-24T03:34:33;6.97;;;3.40;;
11807;SDS011;5961;42.640;23.380;2022-11-24T03:37:01;4.43;;;2.87;;
11807;SDS011;5961;42.640;23.380;2022-11-24T03:39:28;5.13;;;3.20;;
11807;SDS011;5961;42.640;23.380;2022-11-24T03:41:54;4.47;;;2.80;;
11807;SDS011;5961;42.640;23.380;2022-11-24T03:44:21;4.10;;;3.00;;
11807;SDS011;5961;42.640;23.380;2022-11-24T03:46:48;4.57;;;3.03;;
11807;SDS011;5961;42.640;23.380;2022-11-24T03:49:16;3.27;;;2.77;;
11807;SDS011;5961;42.640;23.380;2022-11-24T03:51:42;3.20;;;2.70;;
11807;SDS011;5961;42.640;23.380;2022-11-24T03:54:10;4.07;;;2.90;;
11807;SDS011;5961;42.640;23.380;2022-11-24T03:56:37;5.33;;;3.30;;
11807;SDS011;5961;42.640;23.380;2022-11-24T03:59:04;5.70;;;3.13;;
11807;SDS011;5961;42.640;23.380;2022-11-24T04:01:30;7.20;;;2.83;;
11807;SDS011;5961;42.640;23.380;2022-11-24T04:03:57;4.03;;;2.80;;
11807;SDS011;5961;42.640;23.380;2022-11-24T04:06:24;4.67;;;2.80;;
11807;SDS011;5961;42.640;23.380;2022-11-24T04:08:50;5.23;;;3.10;;
11807;SDS011;5961;42.640;23.380;2022-11-24T04:11:18;3.83;;;2.80;;
11807;SDS011;5961;42.640;23.380;2022-11-24T04:14:02;4.80;;;3.10;;
11807;SDS011;5961;42.640;23.380;2022-11-24T04:16:29;6.57;;;3.60;;
11807;SDS011;5961;42.640;23.380;2022-11-24T04:18:56;4.37;;;3.10;;
11807;SDS011;5961;42.640;23.380;2022-11-24T04:21:23;5.60;;;3.60;;
11807;SDS011;5961;42.640;23.380;2022-11-24T04:23:49;5.07;;;2.97;;
11807;SDS011;5961;42.640;23.380;2022-11-24T04:26:16;6.27;;;3.53;;
11807;SDS011;5961;42.640;23.380;2022-11-24T04:28:44;5.13;;;3.27;;
11807;SDS011;5961;42.640;23.380;2022-11-24T04:31:11;5.07;;;2.87;;
11807;SDS011;5961;42.640;23.380;2022-11-24T04:33:37;4.20;;;3.20;;
11807;SDS011;5961;42.640;23.380;2022-11-24T04:36:04;5.83;;;3.33;;
11807;SDS011;5961;42.640;23.380;2022-11-24T04:38:31;4.87;;;3.30;;
11807;SDS011;5961;42.640;23.380;2022-11-24T04:40:59;4.07;;;3.27;;
11807;SDS011;5961;42.640;23.380;2022-11-24T04:43:26;5.23;;;3.40;;
11807;SDS011;5961;42.640;23.380;2022-11-24T04:45:54;3.83;;;2.83;;
11807;SDS011;5961;42.640;23.380;2022-11-24T04:48:21;5.40;;;3.13;;
11807;SDS011;5961;42.640;23.380;2022-11-24T04:50:48;6.50;;;3.27;;
11807;SDS011;5961;42.640;23.380;2022-11-24T04:53:14;5.40;;;3.30;;
11807;SDS011;5961;42.640;23.380;2022-11-24T04:55:41;6.73;;;3.50;;
11807;SDS011;5961;42.640;23.380;2022-11-24T04:58:08;5.70;;;3.53;;
11807;SDS011;5961;42.640;23.380;2022-11-24T05:00:36;5.93;;;3.97;;
11807;SDS011;5961;42.640;23.380;2022-11-24T05:03:04;9.37;;;4.50;;
11807;SDS011;5961;42.640;23.380;2022-11-24T05:05:31;6.40;;;4.73;;
11807;SDS011;5961;42.640;23.380;2022-11-24T05:07:58;8.73;;;5.77;;
11807;SDS011;5961;42.640;23.380;2022-11-24T05:10:25;9.97;;;6.87;;
11807;SDS011;5961;42.640;23.380;2022-11-24T05:13:01;14.03;;;10.00;;
11807;SDS011;5961;42.640;23.380;2022-11-24T05:15:29;17.20;;;11.03;;
11807;SDS011;5961;42.640;23.380;2022-11-24T05:17:56;13.20;;;9.70;;
11807;SDS011;5961;42.640;23.380;2022-11-24T05:20:24;10.37;;;8.07;;
11807;SDS011;5961;42.640;23.380;2022-11-24T05:22:51;13.27;;;6.87;;
11807;SDS011;5961;42.640;23.380;2022-11-24T05:25:18;12.17;;;7.33;;
11807;SDS011;5961;42.640;23.380;2022-11-24T05:27:44;14.70;;;6.90;;
11807;SDS011;5961;42.640;23.380;2022-11-24T05:30:11;13.23;;;6.30;;
11807;SDS011;5961;42.640;23.380;2022-11-24T05:32:38;12.63;;;6.27;;
11807;SDS011;5961;42.640;23.380;2022-11-24T05:35:06;10.90;;;5.33;;
11807;SDS011;5961;42.640;23.380;2022-11-24T05:37:35;7.03;;;4.83;;
11807;SDS011;5961;42.640;23.380;2022-11-24T05:40:03;6.20;;;3.63;;
11807;SDS011;5961;42.640;23.380;2022-11-24T05:42:31;6.37;;;3.87;;
11807;SDS011;5961;42.640;23.380;2022-11-24T05:45:06;6.90;;;3.50;;
11807;SDS011;5961;42.640;23.380;2022-11-24T05:47:35;8.47;;;4.30;;
11807;SDS011;5961;42.640;23.380;2022-11-24T05:50:03;7.10;;;3.87;;
11807;SDS011;5961;42.640;23.380;2022-11-24T05:52:30;11.80;;;4.37;;
11807;SDS011;5961;42.640;23.380;2022-11-24T05:54:58;7.00;;;4.37;;
11807;SDS011;5961;42.640;23.380;2022-11-24T05:57:25;11.00;;;4.73;;
11807;SDS011;5961;42.640;23.380;2022-11-24T05:59:51;7.93;;;4.70;;
11807;SDS011;5961;42.640;23.380;2022-11-24T06:02:18;12.30;;;4.80;;
11807;SDS011;5961;42.640;23.380;2022-11-24T06:04:44;12.77;;;6.10;;
11807;SDS011;5961;42.640;23.380;2022-11-24T06:07:11;11.03;;;5.50;;
11807;SDS011;5961;42.640;23.380;2022-11-24T06:09:39;13.43;;;5.37;;
11807;SDS011;5961;42.640;23.380;2022-11-24T06:12:08;11.03;;;5.57;;
11807;SDS011;5961;42.640;23.380;2022-11-24T06:14:36;10.70;;;5.60;;
11807;SDS011;5961;42.640;23.380;2022-11-24T06:17:03;10.87;;;5.20;;
11807;SDS011;5961;42.640;23.380;2022-11-24T06:19:30;14.97;;;6.27;;
11807;SDS011;5961;42.640;23.380;2022-11-24T06:21:57;8.27;;;5.80;;
11807;SDS011;5961;42.640;23.380;2022-11-24T06:24:24;14.07;;;5.67;;
11807;SDS011;5961;42.640;23.380;2022-11-24T06:26:51;17.70;;;6.10;;
11807;SDS011;5961;42.640;23.380;2022-11-24T06:29:19;14.47;;;6.83;;
11807;SDS011;5961;42.640;23.380;2022-11-24T06:31:45;12.77;;;6.63;;
11807;SDS011;5961;42.640;23.380;2022-11-24T06:34:12;19.57;;;6.07;;
11807;SDS011;5961;42.640;23.380;2022-11-24T06:36:39;12.33;;;5.97;;
11807;SDS011;5961;42.640;23.380;2022-11-24T06:39:05;9.63;;;4.97;;
11807;SDS011;5961;42.640;23.380;2022-11-24T06:41:32;9.07;;;5.20;;
11807;SDS011;5961;42.640;23.380;2022-11-24T06:44:00;12.37;;;5.10;;
11807;SDS011;5961;42.640;23.380;2022-11-24T06:46:29;6.17;;;4.43;;
11807;SDS011;5961;42.640;23.380;2022-11-24T06:48:56;7.33;;;4.30;;
11807;SDS011;5961;42.640;23.380;2022-11-24T06:51:24;6.50;;;3.63;;
11807;SDS011;5961;42.640;23.380;2022-11-24T06:53:52;8.90;;;3.83;;
11807;SDS011;5961;42.640;23.380;2022-11-24T06:56:19;6.10;;;3.40;;
11807;SDS011;5961;42.640;23.380;2022-11-24T06:58:47;8.70;;;3.83;;
11807;SDS011;5961;42.640;23.380;2022-11-24T07:01:14;9.50;;;4.13;;
11807;SDS011;5961;42.640;23.380;2022-11-24T07:03:43;9.17;;;4.00;;
11807;SDS011;5961;42.640;23.380;2022-11-24T07:06:10;8.80;;;4.63;;
11807;SDS011;5961;42.640;23.380;2022-11-24T07:08:37;10.23;;;4.43;;
11807;SDS011;5961;42.640;23.380;2022-11-24T07:11:04;8.23;;;5.10;;
11807;SDS011;5961;42.640;23.380;2022-11-24T07:13:31;11.07;;;5.80;;
11807;SDS011;5961;42.640;23.380;2022-11-24T07:15:59;15.27;;;5.73;;
11807;SDS011;5961;42.640;23.380;2022-11-24T07:18:35;15.83;;;5.43;;
11807;SDS011;5961;42.640;23.380;2022-11-24T07:21:04;11.20;;;6.23;;
11807;SDS011;5961;42.640;23.380;2022-11-24T07:23:31;14.53;;;8.57;;
11807;SDS011;5961;42.640;23.380;2022-11-24T07:25:57;16.23;;;10.50;;
11807;SDS011;5961;42.640;23.380;2022-11-24T07:28:24;22.17;;;12.70;;
11807;SDS011;5961;42.640;23.380;2022-11-24T07:30:51;23.27;;;12.33;;
11807;SDS011;5961;42.640;23.380;2022-11-24T07:33:17;19.27;;;11.57;;
11807;SDS011;5961;42.640;23.380;2022-11-24T07:35:49;22.23;;;12.53;;
11807;SDS011;5961;42.640;23.380;2022-11-24T07:38:17;21.73;;;12.60;;
11807;SDS011;5961;42.640;23.380;2022-11-24T07:40:43;17.70;;;11.27;;
11807;SDS011;5961;42.640;23.380;2022-11-24T07:43:10;14.63;;;10.30;;
11807;SDS011;5961;42.640;23.380;2022-11-24T07:45:37;13.73;;;8.93;;
11807;SDS011;5961;42.640;23.380;2022-11-24T07:48:04;12.97;;;8.17;;
11807;SDS011;5961;42.640;23.380;2022-11-24T07:50:31;12.77;;;9.03;;
11807;SDS011;5961;42.640;23.380;2022-11-24T07:52:59;12.43;;;7.70;;
11807;SDS011;5961;42.640;23.380;2022-11-24T07:55:28;13.50;;;7.77;;
11807;SDS011;5961;42.640;23.380;2022-11-24T07:57:57;13.77;;;8.50;;
11807;SDS011;5961;42.640;23.380;2022-11-24T08:00:25;11.87;;;8.10;;
11807;SDS011;5961;42.640;23.380;2022-11-24T08:02:52;12.50;;;8.30;;
11807;SDS011;5961;42.640;23.380;2022-11-24T08:05:19;11.80;;;8.43;;
11807;SDS011;5961;42.640;23.380;2022-11-24T08:07:46;12.83;;;7.87;;
11807;SDS011;5961;42.640;23.380;2022-11-24T08:10:13;11.07;;;8.30;;
11807;SDS011;5961;42.640;23.380;2022-11-24T08:12:41;13.60;;;8.73;;
11807;SDS011;5961;42.640;23.380;2022-11-24T08:15:08;11.17;;;8.90;;
11807;SDS011;5961;42.640;23.380;2022-11-24T08:17:35;11.83;;;8.50;;
11807;SDS011;5961;42.640;23.380;2022-11-24T08:20:02;10.23;;;7.63;;
11807;SDS011;5961;42.640;23.380;2022-11-24T08:22:29;11.83;;;7.80;;
11807;SDS011;5961;42.640;23.380;2022-11-24T08:24:56;11.40;;;8.43;;
11807;SDS011;5961;42.640;23.380;2022-11-24T08:27:22;12.40;;;8.37;;
11807;SDS011;5961;42.640;23.380;2022-11-24T08:29:50;9.73;;;7.87;;
11807;SDS011;5961;42.640;23.380;2022-11-24T08:32:17;10.00;;;8.03;;
11807;SDS011;5961;42.640;23.380;2022-11-24T08:34:44;11.63;;;8.03;;
11807;SDS011;5961;42.640;23.380;2022-11-24T08:37:10;12.50;;;8.90;;
11807;SDS011;5961;42.640;23.380;2022-11-24T08:39:37;12.70;;;7.63;;
11807;SDS011;5961;42.640;23.380;2022-11-24T08:42:04;10.20;;;6.90;;
11807;SDS011;5961;42.640;23.380;2022-11-24T08:44:30;9.27;;;6.63;;
11807;SDS011;5961;42.640;23.380;2022-11-24T08:46:58;11.50;;;7.27;;
11807;SDS011;5961;42.640;23.380;2022-11-24T08:49:25;12.40;;;7.80;;
11807;SDS011;5961;42.640;23.380;2022-11-24T08:51:52;8.87;;;6.20;;
11807;SDS011;5961;42.640;23.380;2022-11-24T08:54:18;9.60;;;6.07;;
11807;SDS011;5961;42.640;23.380;2022-11-24T08:56:47;9.83;;;6.67;;
11807;SDS011;5961;42.640;23.380;2022-11-24T08:59:14;9.73;;;6.87;;
11807;SDS011;5961;42.640;23.380;2022-11-24T09:01:41;8.03;;;5.73;;
11807;SDS011;5961;42.640;23.380;2022-11-24T09:04:10;9.70;;;5.83;;
11807;SDS011;5961;42.640;23.380;2022-11-24T09:06:36;8.13;;;5.10;;
11807;SDS011;5961;42.640;23.380;2022-11-24T09:09:03;5.57;;;3.97;;
11807;SDS011;5961;42.640;23.380;2022-11-24T09:11:30;4.83;;;3.60;;
11807;SDS011;5961;42.640;23.380;2022-11-24T09:13:58;4.97;;;3.97;;
11807;SDS011;5961;42.640;23.380;2022-11-24T09:16:26;5.30;;;3.90;;
11807;SDS011;5961;42.640;23.380;2022-11-24T09:18:53;5.43;;;4.47;;
11807;SDS011;5961;42.640;23.380;2022-11-24T09:21:22;9.70;;;4.80;;
11807;SDS011;5961;42.640;23.380;2022-11-24T09:23:49;8.33;;;5.53;;
11807;SDS011;5961;42.640;23.380;2022-11-24T09:26:18;9.17;;;5.70;;
11807;SDS011;5961;42.640;23.380;2022-11-24T09:28:47;7.90;;;4.67;;
11807;SDS011;5961;42.640;23.380;2022-11-24T09:31:18;7.27;;;4.60;;
11807;SDS011;5961;42.640;23.380;2022-11-24T09:33:46;5.37;;;4.43;;
11807;SDS011;5961;42.640;23.380;2022-11-24T09:36:13;5.33;;;4.20;;
11807;SDS011;5961;42.640;23.380;2022-11-24T09:38:41;6.50;;;4.20;;
11807;SDS011;5961;42.640;23.380;2022-11-24T09:41:20;5.77;;;3.50;;
11807;SDS011;5961;42.640;23.380;2022-11-24T09:44:06;5.13;;;3.10;;
11807;SDS011;5961;42.640;23.380;2022-11-24T09:46:39;3.57;;;2.50;;
11807;SDS011;5961;42.640;23.380;2022-11-24T09:49:13;2.83;;;2.40;;
11807;SDS011;5961;42.640;23.380;2022-11-24T09:51:45;3.03;;;1.90;;
11807;SDS011;5961;42.640;23.380;2022-11-24T09:54:17;2.47;;;1.60;;
11807;SDS011;5961;42.640;23.380;2022-11-24T09:56:48;2.37;;;1.80;;
11807;SDS011;5961;42.640;23.380;2022-11-24T09:59:16;1.77;;;1.67;;
11807;SDS011;5961;42.640;23.380;2022-11-24T10:01:45;1.93;;;1.73;;
11807;SDS011;5961;42.640;23.380;2022-11-24T10:04:14;2.07;;;1.80;;
11807;SDS011;5961;42.640;23.380;2022-11-24T10:06:44;1.60;;;1.50;;
11807;SDS011;5961;42.640;23.380;2022-11-24T10:09:26;1.60;;;1.50;;
11807;SDS011;5961;42.640;23.380;2022-11-24T10:12:09;1.77;;;1.67;;
11807;SDS011;5961;42.640;23.380;2022-11-24T10:14:53;2.07;;;1.77;;
11807;SDS011;5961;42.640;23.380;2022-11-24T10:17:31;1.73;;;1.63;;
11807;SDS011;5961;42.640;23.380;2022-11-24T10:20:11;1.60;;;1.50;;
11807;SDS011;5961;42.640;23.380;2022-11-24T10:22:48;2.00;;;1.87;;
11807;SDS011;5961;42.640;23.380;2022-11-24T10:25:22;2.20;;;2.00;;
11807;SDS011;5961;42.640;23.380;2022-11-24T10:27:53;2.20;;;2.00;;
11807;SDS011;5961;42.640;23.380;2022-11-24T10:30:24;2.40;;;2.10;;
11807;SDS011;5961;42.640;23.380;2022-11-24T10:32:52;2.70;;;2.00;;
11807;SDS011;5961;42.640;23.380;2022-11-24T10:35:25;1.97;;;1.80;;
11807;SDS011;5961;42.640;23.380;2022-11-24T10:38:00;2.40;;;2.20;;
11807;SDS011;5961;42.640;23.380;2022-11-24T10:40:39;2.20;;;2.00;;
11807;SDS011;5961;42.640;23.380;2022-11-24T10:43:08;2.20;;;1.90;;
11807;SDS011;5961;42.640;23.380;2022-11-24T10:45:37;2.13;;;2.00;;
11807;SDS011;5961;42.640;23.380;2022-11-24T10:48:06;3.67;;;2.50;;
11807;SDS011;5961;42.640;23.380;2022-11-24T10:50:37;1.73;;;1.60;;
11807;SDS011;5961;42.640;23.380;2022-11-24T10:53:12;4.03;;;2.20;;
11807;SDS011;5961;42.640;23.380;2022-11-24T10:55:56;3.43;;;2.40;;
11807;SDS011;5961;42.640;23.380;2022-11-24T10:58:26;2.50;;;2.30;;
11807;SDS011;5961;42.640;23.380;2022-11-24T11:00:54;2.50;;;2.30;;
11807;SDS011;5961;42.640;23.380;2022-11-24T11:03:24;2.43;;;2.23;;
11807;SDS011;5961;42.640;23.380;2022-11-24T11:05:52;5.50;;;2.53;;
11807;SDS011;5961;42.640;23.380;2022-11-24T11:08:24;2.87;;;2.40;;
11807;SDS011;5961;42.640;23.380;2022-11-24T11:11:13;2.93;;;2.60;;
11807;SDS011;5961;42.640;23.380;2022-11-24T11:13:48;3.00;;;2.60;;
11807;SDS011;5961;42.640;23.380;2022-11-24T11:16:26;3.00;;;2.70;;
11807;SDS011;5961;42.640;23.380;2022-11-24T11:18:59;3.20;;;2.80;;
11807;SDS011;5961;42.640;23.380;2022-11-24T11:21:30;5.40;;;3.10;;
11807;SDS011;5961;42.640;23.380;2022-11-24T11:23:58;5.20;;;3.10;;
11807;SDS011;5961;42.640;23.380;2022-11-24T11:26:31;3.10;;;2.80;;
11807;SDS011;5961;42.640;23.380;2022-11-24T11:29:07;3.30;;;3.00;;
11807;SDS011;5961;42.640;23.380;2022-11-24T11:31:40;3.53;;;3.03;;
11807;SDS011;5961;42.640;23.380;2022-11-24T11:34:13;3.30;;;3.00;;
11807;SDS011;5961;42.640;23.380;2022-11-24T11:36:44;3.50;;;3.20;;
11807;SDS011;5961;42.640;23.380;2022-11-24T11:39:21;5.53;;;3.63;;
11807;SDS011;5961;42.640;23.380;2022-11-24T11:41:51;3.77;;;3.10;;
11807;SDS011;5961;42.640;23.380;2022-11-24T11:44:27;6.60;;;4.97;;
11807;SDS011;5961;42.640;23.380;2022-11-24T11:46:59;4.37;;;3.57;;
11807;SDS011;5961;42.640;23.380;2022-11-24T11:49:36;4.43;;;3.50;;
11807;SDS011;5961;42.640;23.380;2022-11-24T11:52:07;4.57;;;3.60;;
11807;SDS011;5961;42.640;23.380;2022-11-24T11:54:56;3.93;;;3.53;;
11807;SDS011;5961;42.640;23.380;2022-11-24T11:57:39;5.47;;;4.13;;
11807;SDS011;5961;42.640;23.380;2022-11-24T12:00:16;4.13;;;3.60;;
11807;SDS011;5961;42.640;23.380;2022-11-24T12:02:59;4.17;;;3.17;;
11807;SDS011;5961;42.640;23.380;2022-11-24T12:05:46;5.00;;;3.90;;
11807;SDS011;5961;42.640;23.380;2022-11-24T12:08:19;3.93;;;3.40;;
11807;SDS011;5961;42.640;23.380;2022-11-24T12:10:55;4.40;;;3.53;;
11807;SDS011;5961;42.640;23.380;2022-11-24T12:13:40;4.67;;;3.70;;
11807;SDS011;5961;42.640;23.380;2022-11-24T12:16:26;5.23;;;3.40;;
11807;SDS011;5961;42.640;23.380;2022-11-24T12:19:14;4.40;;;3.40;;
11807;SDS011;5961;42.640;23.380;2022-11-24T12:21:53;3.93;;;3.40;;
11807;SDS011;5961;42.640;23.380;2022-11-24T12:24:30;4.47;;;3.63;;
11807;SDS011;5961;42.640;23.380;2022-11-24T12:27:08;3.30;;;2.93;;
11807;SDS011;5961;42.640;23.380;2022-11-24T12:29:51;4.13;;;3.33;;
11807;SDS011;5961;42.640;23.380;2022-11-24T12:32:33;3.87;;;3.47;;
11807;SDS011;5961;42.640;23.380;2022-11-24T12:35:31;5.53;;;4.07;;
11807;SDS011;5961;42.640;23.380;2022-11-24T12:38:04;4.17;;;3.50;;
11807;SDS011;5961;42.640;23.380;2022-11-24T12:40:48;7.07;;;3.50;;
11807;SDS011;5961;42.640;23.380;2022-11-24T12:43:35;7.40;;;3.87;;
11807;SDS011;5961;42.640;23.380;2022-11-24T12:46:06;4.87;;;3.80;;
11807;SDS011;5961;42.640;23.380;2022-11-24T12:48:46;3.00;;;2.70;;
11807;SDS011;5961;42.640;23.380;2022-11-24T12:51:24;5.23;;;3.13;;
11807;SDS011;5961;42.640;23.380;2022-11-24T12:53:54;2.97;;;2.67;;
11807;SDS011;5961;42.640;23.380;2022-11-24T12:56:24;4.13;;;3.10;;
11807;SDS011;5961;42.640;23.380;2022-11-24T12:59:01;5.00;;;3.03;;
11807;SDS011;5961;42.640;23.380;2022-11-24T13:01:43;4.00;;;3.10;;
11807;SDS011;5961;42.640;23.380;2022-11-24T13:04:21;3.40;;;3.03;;
11807;SDS011;5961;42.640;23.380;2022-11-24T13:06:58;4.20;;;3.10;;
11807;SDS011;5961;42.640;23.380;2022-11-24T13:09:28;3.83;;;2.83;;
11807;SDS011;5961;42.640;23.380;2022-11-24T13:12:04;3.30;;;3.00;;
11807;SDS011;5961;42.640;23.380;2022-11-24T13:14:35;3.50;;;3.20;;
11807;SDS011;5961;42.640;23.380;2022-11-24T13:17:21;3.60;;;3.30;;
11807;SDS011;5961;42.640;23.380;2022-11-24T13:19:49;3.40;;;3.10;;
11807;SDS011;5961;42.640;23.380;2022-11-24T13:22:17;3.30;;;3.00;;
11807;SDS011;5961;42.640;23.380;2022-11-24T13:25:02;3.13;;;2.83;;
11807;SDS011;5961;42.640;23.380;2022-11-24T13:27:42;4.53;;;3.10;;
11807;SDS011;5961;42.640;23.380;2022-11-24T13:33:29;4.03;;;3.50;;
11807;SDS011;5961;42.640;23.380;2022-11-24T13:38:55;3.50;;;3.00;;
11807;SDS011;5961;42.640;23.380;2022-11-24T13:44:46;3.30;;;2.90;;
11807;SDS011;5961;42.640;23.380;2022-11-24T13:50:18;4.93;;;3.10;;
11807;SDS011;5961;42.640;23.380;2022-11-24T13:52:49;3.57;;;3.20;;
11807;SDS011;5961;42.640;23.380;2022-11-24T13:55:26;5.30;;;2.93;;
11807;SDS011;5961;42.640;23.380;2022-11-24T13:57:57;3.50;;;3.07;;
11807;SDS011;5961;42.640;23.380;2022-11-24T14:00:28;3.20;;;2.90;;
11807;SDS011;5961;42.640;23.380;2022-11-24T14:02:56;3.70;;;3.27;;
11807;SDS011;5961;42.640;23.380;2022-11-24T14:05:31;3.63;;;3.33;;
11807;SDS011;5961;42.640;23.380;2022-11-24T14:08:01;3.50;;;2.97;;
11807;SDS011;5961;42.640;23.380;2022-11-24T14:10:31;3.30;;;3.00;;
11807;SDS011;5961;42.640;23.380;2022-11-24T14:13:15;3.50;;;3.07;;
11807;SDS011;5961;42.640;23.380;2022-11-24T14:15:57;3.90;;;3.10;;
11807;SDS011;5961;42.640;23.380;2022-11-24T14:18:25;3.07;;;2.77;;
11807;SDS011;5961;42.640;23.380;2022-11-24T14:20:54;3.90;;;3.00;;
11807;SDS011;5961;42.640;23.380;2022-11-24T14:23:21;2.90;;;2.60;;
11807;SDS011;5961;42.640;23.380;2022-11-24T14:25:48;3.97;;;2.80;;
11807;SDS011;5961;42.640;23.380;2022-11-24T14:28:19;3.67;;;2.70;;
11807;SDS011;5961;42.640;23.380;2022-11-24T14:30:49;3.27;;;2.97;;
11807;SDS011;5961;42.640;23.380;2022-11-24T14:33:17;4.10;;;3.23;;
11807;SDS011;5961;42.640;23.380;2022-11-24T14:35:45;5.00;;;2.97;;
11807;SDS011;5961;42.640;23.380;2022-11-24T14:38:14;5.50;;;2.87;;
11807;SDS011;5961;42.640;23.380;2022-11-24T14:40:41;2.93;;;2.57;;
11807;SDS011;5961;42.640;23.380;2022-11-24T14:43:15;3.17;;;2.50;;
11807;SDS011;5961;42.640;23.380;2022-11-24T14:45:48;2.67;;;2.13;;
11807;SDS011;5961;42.640;23.380;2022-11-24T14:48:16;3.23;;;2.30;;
11807;SDS011;5961;42.640;23.380;2022-11-24T14:50:45;2.40;;;2.20;;
11807;SDS011;5961;42.640;23.380;2022-11-24T14:53:14;2.60;;;2.40;;
11807;SDS011;5961;42.640;23.380;2022-11-24T14:55:43;2.60;;;2.40;;
11807;SDS011;5961;42.640;23.380;2022-11-24T14:58:19;3.33;;;2.60;;
11807;SDS011;5961;42.640;23.380;2022-11-24T15:01:07;2.97;;;2.67;;
11807;SDS011;5961;42.640;23.380;2022-11-24T15:03:44;3.40;;;2.70;;
11807;SDS011;5961;42.640;23.380;2022-11-24T15:06:14;3.00;;;2.37;;
11807;SDS011;5961;42.640;23.380;2022-11-24T15:08:45;2.73;;;2.50;;
11807;SDS011;5961;42.640;23.380;2022-11-24T15:11:14;2.97;;;2.60;;
11807;SDS011;5961;42.640;23.380;2022-11-24T15:13:49;2.60;;;2.40;;
11807;SDS011;5961;42.640;23.380;2022-11-24T15:16:18;3.93;;;2.67;;